Time;durP1;ratioP1;P1;durP2;ratioP2;P2;SDS_P1;SDS_P2;PMS_P1;PMS_P2;Temp;Humidity;BMP_temperature;BMP_pressure;BME280_temperature;BME280_humidity;BME280_pressure;Samples;Min_cycle;Max_cycle;Signal;HPM_P1;HPM_P2
2022/05/08 00:00:05;;;;;;;4.25;3.65;;;;;;;;;;5014397;28;20029;-59
2022/05/08 00:02:31;;;;;;;4.35;3.92;;;;;;;;;;5014913;28;20026;-57
2022/05/08 00:04:57;;;;;;;4.55;4.07;;;;;;;;;;5014245;28;20085;-58
2022/05/08 00:07:24;;;;;;;3.80;3.35;;;;;;;;;;5013724;28;20025;-57
2022/05/08 00:09:50;;;;;;;5.15;4.38;;;;;;;;;;5015041;28;20018;-57
2022/05/08 00:12:17;;;;;;;4.85;4.35;;;;;;;;;;5014107;28;20082;-58
2022/05/08 00:14:43;;;;;;;4.60;4.20;;;;;;;;;;5014734;28;20030;-58
2022/05/08 00:17:11;;;;;;;5.68;4.00;;;;;;;;;;5013895;28;20026;-59
2022/05/08 00:19:39;;;;;;;5.28;3.60;;;;;;;;;;5014541;28;20049;-59
2022/05/08 00:22:06;;;;;;;4.68;3.95;;;;;;;;;;5014248;28;20467;-64
2022/05/08 00:24:32;;;;;;;4.80;4.10;;;;;;;;;;5014546;28;20021;-57
2022/05/08 00:26:58;;;;;;;4.30;3.83;;;;;;;;;;5014647;28;20156;-56
2022/05/08 00:29:24;;;;;;;5.15;4.20;;;;;;;;;;5012449;28;20018;-57
2022/05/08 00:31:50;;;;;;;4.00;3.60;;;;;;;;;;5014205;28;20494;-56
2022/05/08 00:34:16;;;;;;;4.72;4.20;;;;;;;;;;5013366;28;20033;-59
2022/05/08 00:36:42;;;;;;;5.03;3.92;;;;;;;;;;5014492;28;20025;-57
2022/05/08 00:39:08;;;;;;;4.25;3.85;;;;;;;;;;5013543;28;20064;-59
2022/05/08 00:41:34;;;;;;;4.47;4.07;;;;;;;;;;5014244;28;20017;-57
2022/05/08 00:44:00;;;;;;;5.22;4.63;;;;;;;;;;5014329;28;20041;-56
2022/05/08 00:46:27;;;;;;;4.22;3.83;;;;;;;;;;5013441;28;20033;-57
2022/05/08 00:48:53;;;;;;;5.50;4.20;;;;;;;;;;5013874;28;20040;-56
2022/05/08 00:51:20;;;;;;;5.85;4.18;;;;;;;;;;5012994;28;20084;-57
2022/05/08 00:53:52;;;;;;;4.10;3.70;;;;;;;;;;5026903;28;20033;-56
2022/05/08 00:56:19;;;;;;;4.72;4.32;;;;;;;;;;5031800;28;20025;-56
2022/05/08 00:58:48;;;;;;;5.00;4.28;;;;;;;;;;5034086;28;20409;-56
2022/05/08 01:01:14;;;;;;;4.70;4.28;;;;;;;;;;5033826;28;20382;-56
2022/05/08 01:03:41;;;;;;;4.55;4.15;;;;;;;;;;5033839;28;20040;-54
2022/05/08 01:06:11;;;;;;;4.75;4.15;;;;;;;;;;5033042;28;20090;-65
2022/05/08 01:08:39;;;;;;;4.93;4.43;;;;;;;;;;5033571;28;20086;-57
2022/05/08 01:11:05;;;;;;;4.53;4.07;;;;;;;;;;5033330;28;20018;-63
2022/05/08 01:13:32;;;;;;;5.35;4.25;;;;;;;;;;5033129;28;20037;-57
2022/05/08 01:15:58;;;;;;;4.88;4.38;;;;;;;;;;5033357;28;20034;-56
2022/05/08 01:18:24;;;;;;;4.47;4.07;;;;;;;;;;5032293;28;20155;-57
2022/05/08 01:20:51;;;;;;;6.53;4.63;;;;;;;;;;5033130;28;20419;-57
2022/05/08 01:23:18;;;;;;;5.10;4.20;;;;;;;;;;5032465;28;20056;-59
2022/05/08 01:25:51;;;;;;;7.45;5.15;;;;;;;;;;5033248;28;20036;-58
2022/05/08 01:28:18;;;;;;;4.95;4.30;;;;;;;;;;5032444;28;20017;-59
2022/05/08 01:30:44;;;;;;;5.43;4.55;;;;;;;;;;5032995;28;20083;-58
2022/05/08 01:33:11;;;;;;;5.50;5.00;;;;;;;;;;5031929;28;20026;-60
2022/05/08 01:35:37;;;;;;;5.30;4.75;;;;;;;;;;5033095;28;20025;-57
2022/05/08 01:38:04;;;;;;;5.38;4.40;;;;;;;;;;5033042;28;20025;-58
2022/05/08 01:40:30;;;;;;;7.20;4.75;;;;;;;;;;5032124;28;20052;-59
2022/05/08 01:42:56;;;;;;;5.20;4.70;;;;;;;;;;5032862;28;20022;-58
2022/05/08 01:45:22;;;;;;;5.40;4.82;;;;;;;;;;5032105;28;20024;-59
2022/05/08 01:50:34;;;;;;;4.88;4.38;;;;;;;;;;5032334;28;20052;-58
2022/05/08 01:53:00;;;;;;;5.50;4.95;;;;;;;;;;5032495;28;20493;-58
2022/05/08 01:55:26;;;;;;;5.10;4.10;;;;;;;;;;5032022;28;20026;-59
2022/05/08 01:57:55;;;;;;;6.18;5.05;;;;;;;;;;5032469;28;20489;-56
2022/05/08 02:00:25;;;;;;;4.80;4.30;;;;;;;;;;5031939;28;20040;-59
2022/05/08 02:02:52;;;;;;;6.55;4.47;;;;;;;;;;5032489;28;20115;-59
2022/05/08 02:05:18;;;;;;;5.22;4.65;;;;;;;;;;5031305;28;20476;-59
2022/05/08 02:07:46;;;;;;;5.53;4.97;;;;;;;;;;5031881;28;20167;-58
2022/05/08 02:10:12;;;;;;;5.35;4.85;;;;;;;;;;5031803;28;20030;-64
2022/05/08 02:12:38;;;;;;;5.15;4.45;;;;;;;;;;5032427;28;20399;-57
2022/05/08 02:15:06;;;;;;;5.15;4.63;;;;;;;;;;5032414;28;20026;-57
2022/05/08 02:17:32;;;;;;;5.25;4.55;;;;;;;;;;5031647;28;20030;-58
2022/05/08 02:19:59;;;;;;;7.60;5.05;;;;;;;;;;5031939;28;20374;-58
2022/05/08 02:22:25;;;;;;;6.85;5.05;;;;;;;;;;5031443;28;20044;-59
2022/05/08 02:24:51;;;;;;;5.90;4.90;;;;;;;;;;5032230;28;20463;-57
2022/05/08 02:27:17;;;;;;;5.15;4.22;;;;;;;;;;5031450;28;20025;-59
2022/05/08 02:29:43;;;;;;;5.70;5.18;;;;;;;;;;5031789;28;20351;-59
2022/05/08 02:32:09;;;;;;;5.13;4.63;;;;;;;;;;5032132;28;20100;-62
2022/05/08 02:34:35;;;;;;;5.20;4.70;;;;;;;;;;5031521;28;20035;-58
2022/05/08 02:37:01;;;;;;;4.72;4.32;;;;;;;;;;5032118;28;20025;-59
2022/05/08 02:39:27;;;;;;;5.05;4.55;;;;;;;;;;5031096;28;20116;-58
2022/05/08 02:41:53;;;;;;;5.75;4.82;;;;;;;;;;5031804;28;20505;-59
2022/05/08 02:44:19;;;;;;;5.20;4.70;;;;;;;;;;5031009;28;20034;-58
2022/05/08 02:46:45;;;;;;;5.10;4.60;;;;;;;;;;5032051;28;20026;-58
2022/05/08 02:49:11;;;;;;;6.22;5.47;;;;;;;;;;5031341;28;20527;-65
2022/05/08 02:51:37;;;;;;;5.13;4.63;;;;;;;;;;5031530;28;20029;-57
2022/05/08 02:54:03;;;;;;;4.85;4.43;;;;;;;;;;5017035;28;20165;-58
2022/05/08 02:59:15;;;;;;;4.70;4.30;;;;;;;;;;5011770;28;20079;-64
2022/05/08 03:01:41;;;;;;;5.13;4.63;;;;;;;;;;5011996;28;20026;-58
2022/05/08 03:04:07;;;;;;;5.32;4.82;;;;;;;;;;5012000;28;20033;-58
2022/05/08 03:06:33;;;;;;;5.95;5.28;;;;;;;;;;5011067;28;20037;-59
2022/05/08 03:08:59;;;;;;;5.95;5.07;;;;;;;;;;5012221;28;20022;-58
2022/05/08 03:11:25;;;;;;;6.63;5.43;;;;;;;;;;5011438;28;20026;-59
2022/05/08 03:13:51;;;;;;;5.63;5.03;;;;;;;;;;5012059;28;20034;-58
2022/05/08 03:16:17;;;;;;;5.60;5.05;;;;;;;;;;5011310;28;20030;-60
2022/05/08 03:18:45;;;;;;;5.70;5.10;;;;;;;;;;5012076;28;20029;-57
2022/05/08 03:21:11;;;;;;;6.57;5.05;;;;;;;;;;5011453;28;20030;-59
2022/05/08 03:23:38;;;;;;;6.28;5.20;;;;;;;;;;5011479;28;20034;-59
2022/05/08 03:26:04;;;;;;;5.88;5.28;;;;;;;;;;5012181;28;20034;-59
2022/05/08 03:28:33;;;;;;;5.93;5.10;;;;;;;;;;5011148;28;20071;-59
2022/05/08 03:30:59;;;;;;;5.35;4.65;;;;;;;;;;5011819;28;20479;-59
2022/05/08 03:33:26;;;;;;;5.57;5.07;;;;;;;;;;5011108;28;20109;-59
2022/05/08 03:35:52;;;;;;;5.97;5.38;;;;;;;;;;5011766;28;20406;-57
2022/05/08 03:38:18;;;;;;;5.00;4.50;;;;;;;;;;5011056;28;20040;-60
2022/05/08 03:40:44;;;;;;;5.15;4.65;;;;;;;;;;5012231;28;20053;-59
2022/05/08 03:43:10;;;;;;;5.03;4.53;;;;;;;;;;5015576;28;20026;-59
2022/05/08 03:45:36;;;;;;;5.70;5.10;;;;;;;;;;5014935;28;20025;-59
2022/05/08 03:48:03;;;;;;;5.25;4.75;;;;;;;;;;5015267;28;20374;-59
2022/05/08 03:50:29;;;;;;;5.28;4.78;;;;;;;;;;5014120;28;20026;-58
2022/05/08 03:52:59;;;;;;;7.38;5.63;;;;;;;;;;5020821;28;20108;-58
2022/05/08 03:55:25;;;;;;;5.90;5.32;;;;;;;;;;5034152;28;20156;-59
2022/05/08 03:57:51;;;;;;;6.75;5.38;;;;;;;;;;5034726;28;20030;-58
2022/05/08 04:00:17;;;;;;;6.18;4.90;;;;;;;;;;5034483;28;20024;-64
2022/05/08 04:02:44;;;;;;;5.18;4.50;;;;;;;;;;5034428;28;20053;-57
2022/05/08 04:05:10;;;;;;;5.90;5.18;;;;;;;;;;5034897;28;20393;-58
2022/05/08 04:07:40;;;;;;;6.55;5.45;;;;;;;;;;5033719;28;20105;-59
2022/05/08 04:10:07;;;;;;;5.95;4.80;;;;;;;;;;5034845;28;20040;-59
2022/05/08 04:12:33;;;;;;;5.75;4.68;;;;;;;;;;5033884;28;20108;-60
2022/05/08 04:14:59;;;;;;;6.05;4.80;;;;;;;;;;5034991;28;20037;-59
2022/05/08 04:17:28;;;;;;;5.95;5.35;;;;;;;;;;5033596;28;20022;-59
2022/05/08 04:19:54;;;;;;;5.25;4.75;;;;;;;;;;5034538;28;20041;-59
2022/05/08 04:25:05;;;;;;;6.13;5.00;;;;;;;;;;5034251;28;20041;-58
2022/05/08 04:27:31;;;;;;;5.00;4.50;;;;;;;;;;5033701;28;20033;-59
2022/05/08 04:29:57;;;;;;;5.47;4.97;;;;;;;;;;5034325;28;20032;-56
2022/05/08 04:32:23;;;;;;;6.03;5.47;;;;;;;;;;5033614;28;20480;-57
2022/05/08 04:34:49;;;;;;;6.10;5.50;;;;;;;;;;5033966;28;20025;-57
2022/05/08 04:37:15;;;;;;;6.78;5.05;;;;;;;;;;5034068;28;20057;-57
2022/05/08 04:39:41;;;;;;;6.22;5.40;;;;;;;;;;5033360;28;20147;-55
2022/05/08 04:42:07;;;;;;;6.22;5.47;;;;;;;;;;5034224;28;20053;-58
2022/05/08 04:44:33;;;;;;;5.80;4.90;;;;;;;;;;5032906;28;20363;-58
2022/05/08 04:46:59;;;;;;;5.35;4.68;;;;;;;;;;5034075;28;20033;-58
2022/05/08 04:49:25;;;;;;;5.63;4.88;;;;;;;;;;5032925;28;20021;-58
2022/05/08 04:51:51;;;;;;;5.80;4.82;;;;;;;;;;5033667;28;20036;-58
2022/05/08 04:54:17;;;;;;;5.63;5.03;;;;;;;;;;5016401;28;20026;-64
2022/05/08 04:56:43;;;;;;;6.43;5.65;;;;;;;;;;5013340;28;20498;-58
2022/05/08 04:59:09;;;;;;;5.38;4.88;;;;;;;;;;5014217;28;20026;-58
2022/05/08 05:01:36;;;;;;;7.20;5.35;;;;;;;;;;5013240;28;20356;-57
2022/05/08 05:04:02;;;;;;;5.65;5.05;;;;;;;;;;5013540;28;20501;-57
2022/05/08 05:06:28;;;;;;;5.57;5.07;;;;;;;;;;5013500;28;20037;-57
2022/05/08 05:08:54;;;;;;;6.05;5.07;;;;;;;;;;5013821;28;20022;-58
2022/05/08 05:11:20;;;;;;;6.72;5.05;;;;;;;;;;5013240;28;20543;-64
2022/05/08 05:13:46;;;;;;;5.90;5.32;;;;;;;;;;5013447;28;20061;-57
2022/05/08 05:16:12;;;;;;;7.63;5.97;;;;;;;;;;5013750;28;20061;-58
2022/05/08 05:18:37;;;;;;;5.63;5.05;;;;;;;;;;5012793;28;20459;-59
2022/05/08 05:21:03;;;;;;;6.18;5.05;;;;;;;;;;5013362;28;20033;-57
2022/05/08 05:23:29;;;;;;;6.40;5.63;;;;;;;;;;5012639;28;20084;-57
2022/05/08 05:25:56;;;;;;;5.47;4.97;;;;;;;;;;5013503;28;20112;-57
2022/05/08 05:28:22;;;;;;;6.57;5.78;;;;;;;;;;5013080;28;20068;-64
2022/05/08 05:30:47;;;;;;;8.27;5.53;;;;;;;;;;5013270;28;20108;-57
2022/05/08 05:33:15;;;;;;;6.45;5.35;;;;;;;;;;5013736;28;20098;-57
2022/05/08 05:35:42;;;;;;;5.28;4.78;;;;;;;;;;5012633;28;20614;-57
2022/05/08 05:38:08;;;;;;;5.53;4.95;;;;;;;;;;5013113;28;20383;-59
2022/05/08 05:40:34;;;;;;;6.15;5.55;;;;;;;;;;5011920;28;20533;-59
2022/05/08 05:43:00;;;;;;;5.72;5.15;;;;;;;;;;5013290;28;20053;-60
2022/05/08 05:45:27;;;;;;;5.05;4.60;;;;;;;;;;5010816;28;20026;-55
2022/05/08 05:47:53;;;;;;;5.60;5.10;;;;;;;;;;5013346;28;20033;-59
2022/05/08 05:50:20;;;;;;;7.03;5.90;;;;;;;;;;5012484;28;20054;-59
2022/05/08 05:52:46;;;;;;;6.45;5.55;;;;;;;;;;5017021;28;20026;-56
2022/05/08 05:55:12;;;;;;;5.95;5.22;;;;;;;;;;5032557;28;20421;-57
2022/05/08 05:57:41;;;;;;;6.43;5.57;;;;;;;;;;5031704;28;20458;-59
2022/05/08 06:00:09;;;;;;;5.35;4.78;;;;;;;;;;5032753;28;20390;-56
2022/05/08 06:02:36;;;;;;;5.75;5.13;;;;;;;;;;5031851;28;20360;-57
2022/05/08 06:05:02;;;;;;;5.53;5.03;;;;;;;;;;5031825;28;20063;-57
2022/05/08 06:07:27;;;;;;;5.68;4.97;;;;;;;;;;5031645;28;20478;-59
2022/05/08 06:09:53;;;;;;;6.30;5.70;;;;;;;;;;5032317;28;20057;-58
2022/05/08 06:12:19;;;;;;;6.13;5.55;;;;;;;;;;5032586;28;20043;-58
2022/05/08 06:14:48;;;;;;;6.07;5.47;;;;;;;;;;5031674;28;20102;-57
2022/05/08 06:17:14;;;;;;;5.07;4.57;;;;;;;;;;5032493;28;20025;-56
2022/05/08 06:19:40;;;;;;;6.00;5.40;;;;;;;;;;5031533;28;20037;-57
2022/05/08 06:22:06;;;;;;;6.80;6.10;;;;;;;;;;5032425;28;20087;-56
2022/05/08 06:24:34;;;;;;;5.82;5.20;;;;;;;;;;5031392;28;20030;-57
2022/05/08 06:27:00;;;;;;;5.78;5.28;;;;;;;;;;5032428;28;20033;-56
2022/05/08 06:29:26;;;;;;;7.93;5.65;;;;;;;;;;5031375;28;20028;-64
2022/05/08 06:31:53;;;;;;;5.90;5.35;;;;;;;;;;5032168;28;20469;-58
2022/05/08 06:34:19;;;;;;;6.50;5.43;;;;;;;;;;5032131;28;20026;-57
2022/05/08 06:36:45;;;;;;;6.38;5.30;;;;;;;;;;5031359;28;20025;-57
2022/05/08 06:39:13;;;;;;;6.60;5.80;;;;;;;;;;5031941;28;20056;-58
2022/05/08 06:41:39;;;;;;;5.85;5.25;;;;;;;;;;5031172;28;20028;-57
2022/05/08 06:44:05;;;;;;;6.78;5.57;;;;;;;;;;5032049;28;20136;-56
2022/05/08 06:46:32;;;;;;;6.35;5.50;;;;;;;;;;5031275;28;20080;-57
2022/05/08 06:49:00;;;;;;;6.78;5.45;;;;;;;;;;5031894;28;20498;-59
2022/05/08 06:51:26;;;;;;;6.78;5.60;;;;;;;;;;5031636;28;20052;-62
2022/05/08 06:53:53;;;;;;;5.72;5.13;;;;;;;;;;5017866;28;20034;-57
2022/05/08 06:56:19;;;;;;;6.03;5.03;;;;;;;;;;5011774;28;20022;-57
2022/05/08 07:01:36;;;;;;;6.22;5.63;;;;;;;;;;5011161;28;20033;-59
2022/05/08 07:04:07;;;;;;;5.97;5.40;;;;;;;;;;5012341;28;20025;-56
2022/05/08 07:06:33;;;;;;;6.43;5.45;;;;;;;;;;5011372;28;20423;-57
2022/05/08 07:08:59;;;;;;;7.03;5.32;;;;;;;;;;5012111;28;20101;-56
2022/05/08 07:11:25;;;;;;;7.68;5.82;;;;;;;;;;5011592;28;20073;-65
2022/05/08 07:13:51;;;;;;;6.05;5.43;;;;;;;;;;5011719;28;20026;-56
2022/05/08 07:16:18;;;;;;;7.57;5.75;;;;;;;;;;5014898;28;20018;-55
2022/05/08 07:18:44;;;;;;;6.22;5.63;;;;;;;;;;5015301;28;20113;-57
2022/05/08 07:21:10;;;;;;;6.28;5.18;;;;;;;;;;5015557;28;20022;-57
2022/05/08 07:23:36;;;;;;;5.68;5.10;;;;;;;;;;5015025;28;20045;-58
2022/05/08 07:26:02;;;;;;;6.78;5.90;;;;;;;;;;5019794;28;20066;-58
2022/05/08 07:28:28;;;;;;;5.85;4.97;;;;;;;;;;5025283;28;20022;-64
2022/05/08 07:30:55;;;;;;;6.57;5.65;;;;;;;;;;5024212;28;20485;-59
2022/05/08 07:33:21;;;;;;;5.65;5.13;;;;;;;;;;5024167;28;20029;-55
2022/05/08 07:38:32;;;;;;;7.35;5.70;;;;;;;;;;5023797;28;20487;-62
2022/05/08 07:40:58;;;;;;;6.75;5.82;;;;;;;;;;5024530;28;20036;-60
2022/05/08 07:43:25;;;;;;;6.80;6.10;;;;;;;;;;5023296;28;20110;-59
2022/05/08 07:45:51;;;;;;;6.25;5.65;;;;;;;;;;5030974;28;20033;-60
2022/05/08 07:48:18;;;;;;;6.57;5.88;;;;;;;;;;5031440;28;20021;-58
2022/05/08 07:50:45;;;;;;;7.22;5.32;;;;;;;;;;5023384;28;20407;-60
2022/05/08 07:53:12;;;;;;;7.60;5.65;;;;;;;;;;5023505;28;20072;-59
2022/05/08 07:55:38;;;;;;;6.82;5.35;;;;;;;;;;5035127;28;20044;-59
2022/05/08 07:58:04;;;;;;;6.68;5.50;;;;;;;;;;5034314;28;20542;-59
2022/05/08 08:00:30;;;;;;;7.90;5.85;;;;;;;;;;5033994;28;20104;-66
2022/05/08 08:02:56;;;;;;;7.55;5.55;;;;;;;;;;5034662;28;20030;-59
2022/05/08 08:05:23;;;;;;;5.97;4.97;;;;;;;;;;5034919;28;20030;-60
2022/05/08 08:07:49;;;;;;;6.10;5.03;;;;;;;;;;5033469;28;20025;-59
2022/05/08 08:10:15;;;;;;;6.95;5.35;;;;;;;;;;5034829;28;20029;-58
2022/05/08 08:12:41;;;;;;;7.88;5.90;;;;;;;;;;5027089;28;20469;-59
2022/05/08 08:15:07;;;;;;;7.43;5.40;;;;;;;;;;5023556;28;20079;-62
2022/05/08 08:17:33;;;;;;;6.65;5.80;;;;;;;;;;5015722;28;20029;-59
2022/05/08 08:19:59;;;;;;;6.50;5.30;;;;;;;;;;5020608;28;20024;-59
2022/05/08 08:22:25;;;;;;;6.25;5.28;;;;;;;;;;5054395;28;20039;-59
2022/05/08 08:24:51;;;;;;;6.35;5.68;;;;;;;;;;5053626;28;20493;-59
2022/05/08 08:27:19;;;;;;;6.97;6.05;;;;;;;;;;5052965;28;20096;-57
2022/05/08 08:29:45;;;;;;;5.38;4.35;;;;;;;;;;5053347;28;20027;-59
2022/05/08 08:32:11;;;;;;;6.20;4.97;;;;;;;;;;5052578;28;20104;-57
2022/05/08 08:34:36;;;;;;;5.43;4.68;;;;;;;;;;5053159;28;20031;-57
2022/05/08 08:37:03;;;;;;;7.57;5.70;;;;;;;;;;5053840;28;20104;-57
2022/05/08 08:39:29;;;;;;;5.78;5.07;;;;;;;;;;5041962;28;20041;-66
2022/05/08 08:42:09;;;;;;;7.18;4.97;;;;;;;;;;5020720;28;20028;-57
2022/05/08 08:50:05;;;;;;;5.75;4.57;;;;;;;;;;5013691;28;20395;-60
2022/05/08 08:52:32;;;;;;;5.07;4.25;;;;;;;;;;5015397;28;20033;-62
2022/05/08 08:54:59;;;;;;;9.38;5.18;;;;;;;;;;5033418;28;20109;-56
2022/05/08 08:57:25;;;;;;;10.75;6.20;;;;;;;;;;5033753;28;20029;-55
2022/05/08 08:59:51;;;;;;;8.90;5.25;;;;;;;;;;5033046;28;20022;-51
2022/05/08 09:02:17;;;;;;;7.63;5.80;;;;;;;;;;5032702;28;20462;-54
2022/05/08 09:04:48;;;;;;;8.40;4.82;;;;;;;;;;5032740;28;20037;-55
2022/05/08 09:07:32;;;;;;;6.63;4.88;;;;;;;;;;5033737;28;20034;-51
2022/05/08 09:10:12;;;;;;;6.97;5.43;;;;;;;;;;5034851;28;20045;-51
2022/05/08 09:12:39;;;;;;;6.32;4.82;;;;;;;;;;5034169;28;20028;-54
2022/05/08 09:15:17;;;;;;;5.78;5.18;;;;;;;;;;5033307;28;20029;-55
2022/05/08 09:17:44;;;;;;;7.28;5.50;;;;;;;;;;5032521;28;20875;-54
2022/05/08 09:20:29;;;;;;;6.75;4.40;;;;;;;;;;5033456;28;20033;-55
2022/05/08 09:22:59;;;;;;;6.35;5.43;;;;;;;;;;5032874;28;20044;-52
2022/05/08 09:25:25;;;;;;;6.28;4.78;;;;;;;;;;5032864;28;20120;-54
2022/05/08 09:28:00;;;;;;;6.25;4.43;;;;;;;;;;5032391;28;20029;-54
2022/05/08 09:30:26;;;;;;;6.40;4.90;;;;;;;;;;5032763;28;20024;-55
2022/05/08 09:32:52;;;;;;;7.28;4.32;;;;;;;;;;5032340;28;20028;-56
2022/05/08 09:35:18;;;;;;;6.38;4.20;;;;;;;;;;5033164;28;20101;-56
2022/05/08 09:37:54;;;;;;;4.68;4.22;;;;;;;;;;5035116;28;20059;-53
2022/05/08 09:40:21;;;;;;;5.25;4.20;;;;;;;;;;5052345;28;20048;-53
2022/05/08 09:42:47;;;;;;;6.22;4.50;;;;;;;;;;5052057;28;20024;-55
2022/05/08 09:45:13;;;;;;;5.55;4.50;;;;;;;;;;5052578;28;20047;-56
2022/05/08 09:47:46;;;;;;;5.90;4.85;;;;;;;;;;5051889;28;20100;-54
2022/05/08 09:50:13;;;;;;;5.35;4.85;;;;;;;;;;5052506;28;20025;-57
2022/05/08 09:52:40;;;;;;;5.10;4.55;;;;;;;;;;5048206;28;20039;-58
2022/05/08 09:55:07;;;;;;;5.47;4.50;;;;;;;;;;5032538;28;20021;-59
2022/05/08 09:57:33;;;;;;;5.90;4.18;;;;;;;;;;5031791;28;20029;-58
2022/05/08 10:00:00;;;;;;;7.30;4.10;;;;;;;;;;5032492;28;20021;-55
2022/05/08 10:02:26;;;;;;;5.75;4.18;;;;;;;;;;5032727;28;20061;-55
2022/05/08 10:04:53;;;;;;;5.93;3.92;;;;;;;;;;5031851;28;20104;-54
2022/05/08 10:07:20;;;;;;;6.10;4.25;;;;;;;;;;5032680;28;20462;-56
2022/05/08 10:15:19;;;;;;;5.13;4.20;;;;;;;;;;5032105;28;20116;-56
2022/05/08 10:17:45;;;;;;;6.22;3.50;;;;;;;;;;5031299;28;20112;-56
2022/05/08 10:20:11;;;;;;;5.55;4.72;;;;;;;;;;5032284;28;20109;-56
2022/05/08 10:22:48;;;;;;;4.55;4.00;;;;;;;;;;5030806;28;20561;-56
2022/05/08 10:25:16;;;;;;;4.95;4.25;;;;;;;;;;5032130;28;20355;-55
2022/05/08 10:28:02;;;;;;;5.25;3.58;;;;;;;;;;5031264;28;20025;-55
2022/05/08 10:30:28;;;;;;;7.93;3.97;;;;;;;;;;5032106;28;20108;-55
2022/05/08 10:32:54;;;;;;;5.57;3.90;;;;;;;;;;5031361;28;20017;-56
2022/05/08 10:35:21;;;;;;;6.50;3.72;;;;;;;;;;5032191;28;20035;-56
2022/05/08 10:37:51;;;;;;;4.88;3.70;;;;;;;;;;5034835;28;20489;-54
2022/05/08 10:40:23;;;;;;;6.18;3.95;;;;;;;;;;5051511;28;20056;-53
2022/05/08 10:42:49;;;;;;;;;;;;;;;;;;5051573;28;20033;-52
2022/05/08 10:45:33;;;;;;;5.03;3.60;;;;;;;;;;5051426;28;19913;-52
2022/05/08 10:48:01;;;;;;;3.90;3.47;;;;;;;;;;5050568;28;20064;-53
2022/05/08 10:50:27;;;;;;;11.10;4.97;;;;;;;;;;5055290;28;20028;-52
2022/05/08 10:52:53;;;;;;;5.82;2.90;;;;;;;;;;5052060;28;20061;-54
2022/05/08 10:55:19;;;;;;;5.60;3.88;;;;;;;;;;5039489;28;20033;-51
2022/05/08 10:57:49;;;;;;;4.13;3.25;;;;;;;;;;5037653;28;20079;-50
2022/05/08 11:00:21;;;;;;;4.72;3.20;;;;;;;;;;5038463;28;20040;-54
2022/05/08 11:02:47;;;;;;;3.60;2.90;;;;;;;;;;5037848;28;20406;-53
2022/05/08 11:05:23;;;;;;;3.88;3.10;;;;;;;;;;5038491;28;20079;-55
2022/05/08 11:07:52;;;;;;;6.88;3.72;;;;;;;;;;5033427;28;20025;-55
2022/05/08 11:10:22;;;;;;;4.85;3.28;;;;;;;;;;5026159;28;20022;-55
2022/05/08 11:13:02;;;;;;;5.22;2.78;;;;;;;;;;5019756;28;20425;-51
2022/05/08 11:15:28;;;;;;;4.05;2.95;;;;;;;;;;5028966;28;20030;-53
2022/05/08 11:18:09;;;;;;;4.60;3.50;;;;;;;;;;5028060;28;20041;-51
2022/05/08 11:20:43;;;;;;;4.35;3.30;;;;;;;;;;5031911;28;20075;-60
2022/05/08 11:23:12;;;;;;;6.63;3.05;;;;;;;;;;5037284;28;20490;-52
2022/05/08 11:25:39;;;;;;;8.25;3.50;;;;;;;;;;5026089;28;20387;-54
2022/05/08 11:28:05;;;;;;;6.78;3.60;;;;;;;;;;5023240;28;20040;-49
2022/05/08 11:30:38;;;;;;;5.35;3.88;;;;;;;;;;5029441;28;20021;-52
2022/05/08 11:36:09;;;;;;;5.05;3.08;;;;;;;;;;5034574;28;20079;-52
2022/05/08 11:38:41;;;;;;;4.95;2.80;;;;;;;;;;5047663;28;20021;-63
2022/05/08 11:41:15;;;;;;;4.85;2.47;;;;;;;;;;5058165;28;20072;-53
2022/05/08 11:43:51;;;;;;;5.85;3.03;;;;;;;;;;5057442;28;20036;-51
2022/05/08 11:46:19;;;;;;;4.35;2.97;;;;;;;;;;5058115;28;20100;-54
2022/05/08 11:48:47;;;;;;;4.40;2.75;;;;;;;;;;5057097;28;20017;-52
2022/05/08 11:51:13;;;;;;;5.07;2.58;;;;;;;;;;5058043;28;20381;-54
2022/05/08 11:53:39;;;;;;;5.65;3.15;;;;;;;;;;5057137;28;20048;-55
2022/05/08 11:56:24;;;;;;;3.25;2.95;;;;;;;;;;5057996;28;20453;-54
2022/05/08 11:58:50;;;;;;;4.43;2.75;;;;;;;;;;5057116;28;20028;-51
2022/05/08 12:01:26;;;;;;;5.00;2.60;;;;;;;;;;5055554;28;20025;-52
2022/05/08 12:03:53;;;;;;;4.35;2.88;;;;;;;;;;5053593;28;20133;-51
2022/05/08 12:06:19;;;;;;;4.97;2.72;;;;;;;;;;5054682;28;20028;-53
2022/05/08 12:08:45;;;;;;;3.47;2.58;;;;;;;;;;5053752;28;20053;-52
2022/05/08 12:11:30;;;;;;;3.90;2.90;;;;;;;;;;5054869;28;20025;-52
2022/05/08 12:13:59;;;;;;;4.13;2.85;;;;;;;;;;5053810;28;20053;-56
2022/05/08 12:16:25;;;;;;;5.00;2.50;;;;;;;;;;5054212;28;20036;-54
2022/05/08 12:19:13;;;;;;;3.33;3.00;;;;;;;;;;5053192;28;20032;-55
2022/05/08 12:21:48;;;;;;;3.80;2.88;;;;;;;;;;5053573;28;20028;-60
2022/05/08 12:24:17;;;;;;;8.27;3.10;;;;;;;;;;5054254;28;20099;-52
2022/05/08 12:26:43;;;;;;;5.03;2.90;;;;;;;;;;5053493;28;20029;-55
2022/05/08 12:29:20;;;;;;;3.72;2.75;;;;;;;;;;5054125;28;20069;-58
2022/05/08 12:31:46;;;;;;;8.30;3.15;;;;;;;;;;5053280;28;20029;-59
2022/05/08 12:34:13;;;;;;;4.78;2.95;;;;;;;;;;5054119;28;20025;-55
2022/05/08 12:36:40;;;;;;;3.85;2.47;;;;;;;;;;5053204;28;20497;-60
2022/05/08 12:39:06;;;;;;;8.02;3.05;;;;;;;;;;5039697;28;20041;-58
2022/05/08 12:41:33;;;;;;;14.90;4.55;;;;;;;;;;5034138;28;20021;-54
2022/05/08 12:43:59;;;;;;;5.97;3.40;;;;;;;;;;5033371;28;20029;-53
2022/05/08 12:46:25;;;;;;;5.90;3.00;;;;;;;;;;5034086;28;20029;-55
2022/05/08 12:48:51;;;;;;;10.63;3.80;;;;;;;;;;5033136;28;20079;-58
2022/05/08 12:51:17;;;;;;;4.22;3.45;;;;;;;;;;5033980;28;20029;-56
2022/05/08 12:53:43;;;;;;;8.30;3.72;;;;;;;;;;5032982;28;20059;-54
2022/05/08 12:56:10;;;;;;;7.88;3.53;;;;;;;;;;5033492;28;20413;-49
2022/05/08 13:01:20;;;;;;;8.48;6.05;;;;;;;;;;5035279;28;20044;-55
2022/05/08 13:03:46;;;;;;;11.50;7.05;;;;;;;;;;5033561;28;20044;-56
2022/05/08 13:06:12;;;;;;;13.98;9.40;;;;;;;;;;5033786;28;20194;-49
2022/05/08 13:08:38;;;;;;;10.48;7.50;;;;;;;;;;5043500;28;20021;-61
2022/05/08 13:11:05;;;;;;;8.52;5.80;;;;;;;;;;5051858;28;20024;-56
2022/05/08 13:13:31;;;;;;;6.70;4.80;;;;;;;;;;5052991;28;20382;-58
2022/05/08 13:15:57;;;;;;;7.95;4.13;;;;;;;;;;5052487;28;20104;-60
2022/05/08 13:18:23;;;;;;;7.22;3.92;;;;;;;;;;5042778;28;20443;-60
2022/05/08 13:20:50;;;;;;;6.75;3.97;;;;;;;;;;5028263;28;20481;-60
2022/05/08 13:23:16;;;;;;;6.97;3.65;;;;;;;;;;5032938;28;20040;-60
2022/05/08 13:25:42;;;;;;;6.35;3.53;;;;;;;;;;5031889;28;20057;-61
2022/05/08 13:28:08;;;;;;;4.95;3.00;;;;;;;;;;5033159;28;20025;-60
2022/05/08 13:30:34;;;;;;;5.82;3.08;;;;;;;;;;5032965;28;20022;-60
2022/05/08 13:33:00;;;;;;;4.68;2.92;;;;;;;;;;5032257;28;20260;-60
2022/05/08 13:35:27;;;;;;;5.28;2.55;;;;;;;;;;5032904;28;20049;-61
2022/05/08 13:37:53;;;;;;;4.15;2.85;;;;;;;;;;5036181;28;20028;-60
2022/05/08 13:40:19;;;;;;;5.40;2.63;;;;;;;;;;5052599;28;20079;-60
2022/05/08 13:42:45;;;;;;;3.15;2.55;;;;;;;;;;5051775;28;20025;-60
2022/05/08 13:45:11;;;;;;;3.47;2.28;;;;;;;;;;5052733;28;20079;-60
2022/05/08 13:47:37;;;;;;;3.35;2.53;;;;;;;;;;5052245;28;20100;-64
2022/05/08 13:50:06;;;;;;;4.13;2.15;;;;;;;;;;5051987;28;20037;-61
2022/05/08 13:52:33;;;;;;;3.65;2.10;;;;;;;;;;5049577;28;20398;-59
2022/05/08 13:54:59;;;;;;;3.15;2.30;;;;;;;;;;5031853;28;20672;-59
2022/05/08 13:57:25;;;;;;;4.93;2.33;;;;;;;;;;5032521;28;20022;-59
2022/05/08 13:59:53;;;;;;;4.53;2.47;;;;;;;;;;5031707;28;20025;-59
2022/05/08 14:02:19;;;;;;;7.93;2.20;;;;;;;;;;5032537;28;20458;-59
2022/05/08 14:04:45;;;;;;;4.32;2.10;;;;;;;;;;5031532;28;20029;-59
2022/05/08 14:07:12;;;;;;;2.85;2.08;;;;;;;;;;5032325;28;20063;-59
2022/05/08 14:09:38;;;;;;;2.63;1.98;;;;;;;;;;5050834;28;20031;-59
2022/05/08 14:12:04;;;;;;;4.20;2.28;;;;;;;;;;5051682;28;20114;-59
2022/05/08 14:14:30;;;;;;;3.38;1.73;;;;;;;;;;5052277;28;20032;-59
2022/05/08 14:16:56;;;;;;;3.05;2.38;;;;;;;;;;5051473;28;20124;-59
2022/05/08 14:19:22;;;;;;;3.50;2.40;;;;;;;;;;5052141;28;20096;-59
2022/05/08 14:21:48;;;;;;;8.32;2.63;;;;;;;;;;5050893;28;20426;-59
2022/05/08 14:24:14;;;;;;;6.40;2.35;;;;;;;;;;5051505;28;20029;-59
2022/05/08 14:26:40;;;;;;;2.70;2.10;;;;;;;;;;5051437;28;20108;-59
2022/05/08 14:29:06;;;;;;;2.53;2.10;;;;;;;;;;5052179;28;20517;-59
2022/05/08 14:37:12;;;;;;;2.53;2.30;;;;;;;;;;5051654;28;20040;-59
2022/05/08 14:39:38;;;;;;;2.38;1.95;;;;;;;;;;5051603;28;20052;-59
2022/05/08 14:42:05;;;;;;;3.60;2.45;;;;;;;;;;5051400;28;20025;-59
2022/05/08 14:44:30;;;;;;;3.28;2.28;;;;;;;;;;5051936;28;20061;-59
2022/05/08 14:46:56;;;;;;;2.28;2.08;;;;;;;;;;5050880;28;20048;-60
2022/05/08 14:49:22;;;;;;;4.95;2.05;;;;;;;;;;5051875;28;20025;-59
2022/05/08 14:51:48;;;;;;;4.50;2.30;;;;;;;;;;5050959;28;20033;-59
2022/05/08 14:54:14;;;;;;;3.95;3.55;;;;;;;;;;5033708;28;20029;-59
2022/05/08 14:56:40;;;;;;;3.15;2.42;;;;;;;;;;5031418;28;20467;-63
2022/05/08 14:59:06;;;;;;;2.63;2.10;;;;;;;;;;5031394;28;20028;-59
2022/05/08 15:01:32;;;;;;;3.40;2.22;;;;;;;;;;5031762;28;20381;-59
2022/05/08 15:03:58;;;;;;;2.25;2.00;;;;;;;;;;5030652;28;20026;-59
2022/05/08 15:06:24;;;;;;;2.70;2.28;;;;;;;;;;5031356;28;20532;-59
2022/05/08 15:08:51;;;;;;;3.45;2.60;;;;;;;;;;5042802;28;20025;-59
2022/05/08 15:11:19;;;;;;;3.50;2.20;;;;;;;;;;5051883;28;20100;-59
2022/05/08 15:13:45;;;;;;;3.65;2.28;;;;;;;;;;5050613;28;20041;-62
2022/05/08 15:16:11;;;;;;;2.50;1.92;;;;;;;;;;5051666;28;20017;-59
2022/05/08 15:18:49;;;;;;;3.17;2.42;;;;;;;;;;5051639;28;20448;-60